Home > Products > Valid Products > TAF

000
FTUS44 KSJT 201100
TAFJCT
TAF
KJCT 201120Z 2012/2112 13004KT P6SM SCT020
     FM201300 13005KT P6SM BKN016
      TEMPO 2015/2018 SCT020
     FM201800 12007KT P6SM VCSH BKN040
     FM210000 07005KT P6SM BKN100=



000
FTUS44 KSJT 201100
TAFSJT
TAF
KSJT 201120Z 2012/2112 12006KT P6SM VCSH BKN015
      TEMPO 2012/2016 6SM -SHRA SCT015 BKN040
     FM201600 13007KT P6SM BKN022
     FM201800 12008KT P6SM VCSH SCT030 BKN050
     FM210200 11006KT P6SM BKN100=



000
FTUS44 KSJT 201100
TAFABI
TAF
KABI 201120Z 2012/2112 15007KT 6SM BR OVC010
     FM201400 16009KT P6SM VCSH BKN016
     FM201700 14008KT P6SM VCSH SCT030 BKN050
     FM210100 VRB04KT P6SM BKN120=



000
FTUS44 KSJT 200700 AAB
TAFSJT
TAF AMD
KSJT 200700Z 2007/2106 11006KT P6SM VCSH BKN012
     FM200900 15005KT P6SM OVC009
     FM201500 15006KT P6SM BKN015
     FM201800 16010KT P6SM SCT025 BKN050=



000
FTUS44 KSJT 200600 AAA
TAFSJT
TAF AMD
KSJT 200623Z 2006/2106 11006KT P6SM BKN012
     FM200900 15005KT P6SM OVC009
     FM201500 15006KT P6SM BKN015
     FM201800 16010KT P6SM SCT025 BKN050=



000
FTUS44 KSJT 200500
TAFABI
TAF
KABI 200520Z 2006/2106 12009KT P6SM SCT040 BKN100
     FM200900 15007KT P6SM OVC010
     FM201400 16007KT P6SM VCSH BKN015
     FM201800 16010KT P6SM SCT025 BKN050=



000
FTUS44 KSJT 200500
TAFSJT
TAF
KSJT 200520Z 2006/2106 09008KT P6SM SCT040 BKN120
     FM200900 15005KT P6SM OVC009
     FM201500 15006KT P6SM BKN015
     FM201800 16010KT P6SM SCT025 BKN050=



000
FTUS44 KSJT 200500
TAFJCT
TAF
KJCT 200520Z 2006/2106 09007KT P6SM SCT040 BKN070
     FM200900 12004KT 6SM BR OVC007
     FM201600 13005KT P6SM BKN015
     FM201900 16007KT P6SM SCT025 BKN040=



000
FTUS44 KSJT 192300
TAFABI
TAF
KABI 192328Z 2000/2024 12009KT P6SM SCT040 BKN100
     FM200900 15007KT P6SM OVC010
     FM201500 16007KT P6SM BKN015
     FM201800 16010KT P6SM SCT025 BKN050=



000
FTUS44 KSJT 192300
TAFSJT
TAF
KSJT 192328Z 2000/2024 09008KT P6SM SCT040 BKN120
     FM200900 15005KT P6SM OVC009
     FM201500 15006KT P6SM BKN015
     FM201800 16010KT P6SM SCT025 BKN050=



000
FTUS44 KSJT 192300
TAFJCT
TAF
KJCT 192328Z 2000/2024 10007KT P6SM SCT020 BKN060
     FM200900 12004KT 6SM BR OVC007
     FM201500 13005KT P6SM BKN015
     FM201900 16007KT P6SM SCT025 BKN040=



000
FTUS44 KSJT 192000 AAA
TAFSJT
TAF AMD
KSJT 192039Z 1921/2018 07009KT P6SM VCSH BKN018
      TEMPO 1921/1922 SCT018 BKN035
     FM192200 07009KT P6SM VCSH SCT020 BKN035
     FM192300 08008KT P6SM VCSH BKN040
     FM200300 11006KT P6SM SCT040 BKN080
     FM200900 15005KT P6SM OVC009
     FM201500 15006KT P6SM BKN015=



000
FTUS44 KSJT 192000 AAA
TAFABI
TAF AMD
KABI 192036Z 1921/2018 14009KT P6SM SCT040 BKN150
     FM200900 15007KT P6SM OVC010
     FM201500 16007KT P6SM BKN015=



000
FTUS44 KSJT 192000 AAB
TAFJCT
TAF AMD
KJCT 192035Z 1921/2018 10006KT P6SM VCTS SCT040 BKN050CB
      TEMPO 1921/1922 4SM +TSRA BKN025CB
     FM200300 11007KT P6SM SCT040 BKN080
     FM200900 12004KT 6SM BR OVC007
     FM201500 13005KT P6SM BKN015=



000
FTUS44 KSJT 191900 AAA
TAFJCT
TAF AMD
KJCT 191923Z 1919/2018 07005KT P6SM VCTS SCT040 BKN050CB
      TEMPO 1919/1922 4SM +TSRA BKN025CB
     FM200300 11007KT P6SM BKN080
     FM200900 12004KT 6SM BR OVC007
     FM201500 13005KT P6SM BKN015=



000
FTUS44 KSJT 191800 AAA
TAFSJT
TAF AMD
KSJT 191810Z 1918/2018 08007KT P6SM VCSH OVC009
     FM191900 10007KT P6SM SCT015 BKN025
     FM191930 11007KT P6SM VCTS SCT025 BKN035CB
     FM192100 11007KT P6SM VCTS BKN040CB
     FM200200 13006KT P6SM BKN080
     FM200900 15005KT P6SM OVC009
     FM201500 15006KT P6SM BKN015=



000
FTUS44 KSJT 191700
TAFSJT
TAF
KSJT 191739Z 1918/2018 11007KT P6SM VCSH SCT015 BKN025
     FM191930 11007KT P6SM VCTS SCT025 BKN035CB
     FM192100 11007KT P6SM VCTS BKN040CB
     FM200200 13006KT P6SM BKN080
     FM200900 15005KT P6SM OVC009
     FM201500 15006KT P6SM BKN015=



000
FTUS44 KSJT 191700
TAFABI
TAF
KABI 191739Z 1918/2018 14006KT P6SM SCT018 BKN028
     FM191900 14009KT P6SM VCSH BKN040
     FM200900 15007KT P6SM OVC010
     FM201500 16007KT P6SM BKN015=



000
FTUS44 KSJT 191700
TAFJCT
TAF
KJCT 191739Z 1918/2018 13010KT P6SM VCSH SCT050 BKN100
     FM200300 11007KT P6SM BKN080
     FM200900 12004KT 6SM BR OVC007
     FM201500 13005KT P6SM BKN015=



000
FTUS44 KSJT 191600 AAA
TAFABI
TAF AMD
KABI 191632Z 1917/2012 14005KT P6SM BKN015
     FM191700 14006KT P6SM SCT018 BKN028
     FM191900 14009KT P6SM VCSH BKN040
     FM200900 15007KT P6SM BKN025=



000
FTUS44 KSJT 191600 AAB
TAFSJT
TAF AMD
KSJT 191604Z 1916/2012 09005KT P6SM OVC006
     FM191800 11007KT P6SM VCSH SCT015 BKN025
     FM191930 11007KT P6SM SCT025 BKN035
     FM192100 11007KT P6SM VCSH BKN040
     FM200200 13006KT P6SM BKN080
     FM200900 15005KT P6SM BKN015=



000
FTUS44 KSJT 191300 AAB
TAFJCT
TAF AMD
KJCT 191400Z 1914/2012 08006KT P6SM BKN006 OVC018
      TEMPO 1914/1915 SCT006 OVC015
     FM191500 12008KT P6SM SCT025 BKN100
     FM191800 13010KT P6SM VCSH SCT050 BKN100
     FM200300 11007KT P6SM BKN080
     FM200900 12004KT 6SM BR BKN015=



000
FTUS44 KSJT 191300 AAA
TAFJCT
TAF AMD
KJCT 191335Z 1914/2012 08006KT P6SM BKN006 OVC018
      TEMPO 1914/1915 SCT006 OVC015
     FM191500 12008KT P6SM SCT025 BKN100
     FM191800 13010KT P6SM VCSH SCT050 BKN100
     FM200300 11007KT P6SM BKN080
     FM200900 12004KT 6SM BR BKN015=



000
FTUS44 KSJT 191200 AAA
TAFSJT
TAF AMD
KSJT 191228Z 1912/2012 07007KT P6SM VCSH BKN015
      TEMPO 1912/1916 -SHRA BKN008
     FM191600 13010KT P6SM SCT030 BKN100
     FM191900 12009KT P6SM VCSH SCT050 BKN100
     FM200200 13006KT P6SM BKN080
     FM200900 15005KT P6SM BKN015=



000
FTUS44 KSJT 191100
TAFJCT
TAF
KJCT 191128Z 1912/2012 08006KT P6SM SCT015
      TEMPO 1912/1915 BKN015
     FM191500 12008KT P6SM SCT025 BKN100
     FM191800 16010KT P6SM VCSH SCT050 BKN100
     FM200300 11007KT P6SM BKN080
     FM200900 12004KT 6SM BR BKN015=



000
FTUS44 KSJT 191100
TAFSJT
TAF
KSJT 191128Z 1912/2012 07007KT P6SM VCSH SCT025 BKN100
      TEMPO 1912/1916 BKN020
     FM191600 13010KT P6SM SCT030 BKN100
     FM191900 12009KT P6SM VCSH SCT050 BKN100
     FM200200 13006KT P6SM BKN080
     FM200900 15005KT P6SM BKN015=



000
FTUS44 KSJT 191100
TAFABI
TAF
KABI 191128Z 1912/2012 10005KT 3SM BR BKN003
     FM191300 10005KT 6SM BR VCSH SCT012
      TEMPO 1913/1915 4SM -SHRA BR BKN007
     FM191500 13008KT P6SM BKN015
     FM191900 14009KT P6SM SCT050 BKN100
     FM200900 15007KT P6SM VCSH BKN030=



000
FTUS44 KSJT 191000 AAB
TAFABI
TAF AMD
KABI 191045Z 1911/2006 15007KT P6SM SCT015
      TEMPO 1911/1915 2SM BR BKN012
     FM191500 17010KT P6SM SCT025 BKN050
     FM191900 16010KT P6SM SCT050 BKN100=



000
FTUS44 KSJT 190900 AAA
TAFABI
TAF AMD
KABI 190941Z 1910/2006 15007KT P6SM SCT015
      TEMPO 1911/1915 BKN012
     FM191500 17010KT P6SM SCT025 BKN050
     FM191900 16010KT P6SM SCT050 BKN100=



000
FTUS44 KSJT 190500 AAA
TAFSJT
TAF AMD
KSJT 190559Z 1906/2006 11005KT P6SM VCSH SCT012 BKN100
      TEMPO 1906/1908 4SM RA BKN012
     FM191500 16010KT P6SM SCT025 BKN050
     FM192000 16010KT P6SM SCT050 BKN100=



000
FTUS44 KSJT 190500
TAFSJT
TAF
KSJT 190520Z 1906/2006 11005KT P6SM VCSH SCT012 BKN100
      TEMPO 1906/1908 BKN012
     FM191500 16010KT P6SM SCT025 BKN050
     FM192000 16010KT P6SM SCT050 BKN100=



000
FTUS44 KSJT 190500
TAFJCT
TAF
KJCT 190520Z 1906/2006 09005KT P6SM SCT015 BKN100
      TEMPO 1906/1908 BKN015
     FM190800 10005KT P6SM VCSH BKN015
     FM191500 16010KT P6SM SCT025 BKN050
     FM192000 16010KT P6SM SCT050 BKN100=



000
FTUS44 KSJT 190500
TAFABI
TAF
KABI 190520Z 1906/2006 15007KT P6SM BKN012
     FM191500 17010KT P6SM SCT025 BKN050
     FM191900 16010KT P6SM SCT050 BKN100=



000
FTUS44 KSJT 190100 AAA
TAFJCT
TAF AMD
KJCT 190159Z 1902/1924 04010G18KT P6SM VCSH BKN025
     FM190600 12008KT P6SM BKN050 BKN200
      TEMPO 1911/1915 BKN020
     FM191500 17010KT P6SM SCT070=



000
FTUS44 KSJT 190100 AAA
TAFSJT
TAF AMD
KSJT 190158Z 1902/1924 07006KT P6SM VCSH BKN009 BKN100
     FM190500 11005KT P6SM BKN050 BKN200
      TEMPO 1912/1915 BKN020
     FM191500 17010KT P6SM SCT070=



000
FTUS44 KSJT 182300 CCA
TAFSJT
TAF COR
KSJT 182337Z 1900/1924 07006KT P6SM BKN009 BKN100
     FM190200 11005KT P6SM BKN050 BKN200
      TEMPO 1912/1915 BKN020
     FM191500 17010KT P6SM SCT070=



000
FTUS44 KSJT 182300
TAFABI
TAF
KABI 182320Z 1900/1924 12005KT P6SM VCSH SCT060 BKN100
     FM190300 15007KT P6SM SCT050 BKN200
      TEMPO 1912/1915 SCT020
     FM191500 17010KT P6SM SCT070=



000
FTUS44 KSJT 182300
TAFJCT
TAF
KJCT 182320Z 1900/1924 04010G18KT P6SM VCTS BKN050CB
     FM190300 12008KT P6SM BKN050 BKN200
      TEMPO 1911/1915 BKN020
     FM191500 17010KT P6SM SCT070=



000
FTUS44 KSJT 182300
TAFSJT
TAF
KSJT 182320Z 1900/1924 07006KT P6SM SCT040 BKN100
     FM190600 11005KT P6SM BKN050 BKN200
      TEMPO 1912/1915 BKN020
     FM191500 17010KT P6SM SCT070=



000
FTUS44 KSJT 182100 AAB
TAFSJT
TAF AMD
KSJT 182149Z 1822/1918 36012G20KT P6SM VCTS BKN040CB
      TEMPO 1822/1823 4SM -TSRA BKN025CB
     FM190200 12006KT P6SM VCSH BKN040
     FM190600 11005KT P6SM BKN050 BKN200
      TEMPO 1912/1915 BKN020=



000
FTUS44 KSJT 182000 AAB
TAFABI
TAF AMD
KABI 182058Z 1821/1918 35010KT 2SM TSRA SCT015 BKN025CB
     FM182115 36009KT 6SM -TSRA SCT020 BKN030CB
     FM182200 12005KT P6SM VCTS BKN040CB
     FM182300 13007KT P6SM SCT040 BKN080
     FM190600 15007KT P6SM SCT050 BKN200
      TEMPO 1912/1915 SCT020=



000
FTUS44 KSJT 182000 AAA
TAFSJT
TAF AMD
KSJT 182009Z 1820/1918 16006KT P6SM SCT050
     FM182100 15006KT P6SM VCTS BKN040CB
      TEMPO 1822/1901 VRB10G20KT 3SM +TSRA BKN025CB
     FM190200 12006KT P6SM VCSH BKN040
     FM190600 11005KT P6SM BKN050 BKN200
      TEMPO 1912/1915 BKN020=



000
FTUS44 KSJT 181900 AAA
TAFABI
TAF AMD
KABI 181924Z 1819/1918 VRB05KT P6SM -TSRA BKN040CB
      TEMPO 1819/1821 VRB10G20KT 2SM +TSRA BKN015CB
     FM182100 13005KT P6SM VCTS SCT040CB BKN080
     FM190000 13007KT P6SM BKN050
     FM190600 15007KT P6SM SCT050 BKN200
      TEMPO 1912/1915 SCT020=



000
FTUS44 KSJT 181700
TAFJCT
TAF
KJCT 181739Z 1818/1918 15008KT P6SM SCT050 BKN150
     FM182100 11008KT P6SM VCTS BKN050CB
     FM190200 10005KT P6SM VCSH BKN050
     FM190600 12008KT P6SM BKN050 BKN200
      TEMPO 1911/1915 BKN020=



000
FTUS44 KSJT 181700
TAFSJT
TAF
KSJT 181739Z 1818/1918 16006KT P6SM SCT050
     FM182100 15006KT P6SM VCTS BKN040CB
      TEMPO 1822/1901 VRB10G20KT -TSRA BKN035CB
     FM190200 12006KT P6SM VCSH BKN040
     FM190600 11005KT P6SM BKN050 BKN200
      TEMPO 1912/1915 BKN020=



000
FTUS44 KSJT 181700
TAFABI
TAF
KABI 181739Z 1818/1918 VRB05KT P6SM VCTS SCT050CB BKN150
     FM181900 VRB05KT P6SM -TSRA BKN040CB
      TEMPO 1819/1821 VRB10G20KT 3SM +TSRA BKN025CB
     FM182100 13005KT P6SM VCTS SCT040CB BKN080
     FM190000 13007KT P6SM BKN050
     FM190600 15007KT P6SM SCT050 BKN200
      TEMPO 1912/1915 SCT020=



000
FTUS44 KSJT 181700 AAA
TAFSJT
TAF AMD
KSJT 181735Z 1818/1912 16006KT P6SM SCT050
     FM182100 15006KT P6SM VCTS BKN040CB
      TEMPO 1822/1901 VRB10G20KT -TSRA BKN035CB
     FM190200 12006KT P6SM VCSH BKN040
     FM190600 11005KT P6SM BKN050 BKN200
      TEMPO 1910/1912 SCT020=



000
FTUS44 KSJT 181700 AAA
TAFABI
TAF AMD
KABI 181733Z 1818/1912 VRB05KT P6SM VCTS SCT050CB BKN150
     FM181900 VRB05KT P6SM -TSRA BKN040CB
      TEMPO 1819/1821 VRB10G20KT 3SM +TSRA BKN025CB
     FM182100 13005KT P6SM VCTS SCT040CB BKN080
     FM190000 13007KT P6SM BKN050
     FM190600 15007KT P6SM SCT050 BKN200
      TEMPO 1911/1912 SCT020=



000
FTUS44 KSJT 181400 AAB
TAFJCT
TAF AMD
KJCT 181409Z 1814/1912 VRB03KT P6SM SCT020 BKN150
      TEMPO 1814/1816 BKN020
     FM181600 15008KT P6SM SCT050 BKN150
     FM182100 11008KT P6SM VCTS BKN050CB
     FM190200 10005KT P6SM VCSH BKN050
     FM190600 12008KT P6SM BKN050 BKN200=



000
FTUS44 KSJT 181300 AAA
TAFABI
TAF AMD
KABI 181303Z 1813/1912 14009KT P6SM SCT010 BKN150
     FM181500 12009KT P6SM SCT050
     FM181800 11009KT P6SM VCTS BKN040CB
     FM190000 13008KT P6SM VCSH BKN050
     FM190400 14007KT P6SM SCT050 BKN200=



000
FTUS44 KSJT 181300 AAA
TAFJCT
TAF AMD
KJCT 181302Z 1813/1912 VRB03KT P6SM SCT015 BKN150
      TEMPO 1813/1816 BKN015
     FM181600 12008KT P6SM SCT050 BKN150
     FM182100 11008KT P6SM VCTS BKN050CB
     FM190200 10005KT P6SM VCSH BKN050
     FM190600 12008KT P6SM BKN050 BKN200=



000
FTUS44 KSJT 181100
TAFSJT
TAF
KSJT 181139Z 1812/1912 VRB06KT P6SM BKN200
     FM181700 10008KT P6SM SCT050
     FM182000 09008KT P6SM VCTS BKN040CB
     FM190200 09008KT P6SM VCSH BKN040
     FM190600 11005KT P6SM BKN050 BKN200=



000
FTUS44 KSJT 181100
TAFABI
TAF
KABI 181139Z 1812/1912 14009KT P6SM BKN010
      TEMPO 1812/1815 BKN006
     FM181500 12009KT P6SM SCT050
     FM181800 11009KT P6SM VCTS BKN040CB
     FM190000 13008KT P6SM VCSH BKN050
     FM190400 14007KT P6SM SCT050 BKN200=



000
FTUS44 KSJT 181100
TAFJCT
TAF
KJCT 181139Z 1812/1912 VRB03KT P6SM SCT025 BKN150
     FM181600 12008KT P6SM SCT050 BKN150
     FM182100 11008KT P6SM VCTS BKN050CB
     FM190200 10005KT P6SM VCSH BKN050
     FM190600 12008KT P6SM BKN050 BKN200=



000
FTUS44 KSJT 181100 AAA
TAFABI
TAF AMD
KABI 181101Z 1811/1906 14009KT P6SM BKN010
      TEMPO 1811/1815 BKN006
     FM181500 12009KT P6SM SCT050
     FM182000 11009KT P6SM VCSH BKN050
     FM190300 13008KT P6SM BKN050=



000
FTUS44 KSJT 180500
TAFJCT
TAF
KJCT 180520Z 1806/1906 VRB03KT P6SM BKN100
     FM181100 13004KT P6SM BKN025
     FM181500 12008KT P6SM SCT050
     FM182100 12008KT P6SM VCSH BKN050
     FM190300 12005KT P6SM BKN050=



000
FTUS44 KSJT 180500
TAFABI
TAF
KABI 180520Z 1806/1906 VRB06KT P6SM BKN100
     FM181500 12009KT P6SM SCT050
     FM182000 11009KT P6SM VCSH BKN050
     FM190300 13008KT P6SM BKN050=



000
FTUS44 KSJT 180500
TAFSJT
TAF
KSJT 180520Z 1806/1906 VRB06KT P6SM BKN100
     FM181500 13008KT P6SM SCT050
     FM182200 11008KT P6SM VCSH BKN050
     FM190300 12005KT P6SM BKN050=



000
FTUS44 KSJT 172300
TAFSJT
TAF
KSJT 172331Z 1800/1824 12006KT P6SM BKN070
     FM181500 13008KT P6SM BKN050=



000
FTUS44 KSJT 172300
TAFABI
TAF
KABI 172331Z 1800/1824 VRB06KT P6SM SCT050
     FM181500 12009KT P6SM SCT050=



000
FTUS44 KSJT 172300
TAFJCT
TAF
KJCT 172331Z 1800/1824 10006KT P6SM VCSH SCT060 BKN080
     FM180300 VRB03KT P6SM SCT050 BKN100
     FM181100 13007KT P6SM BKN025
     FM181500 12008KT P6SM SCT050=



000
FTUS44 KSJT 171800 AAA
TAFABI
TAF AMD
KABI 171839Z 1719/1818 19008KT P6SM VCSH SCT035 BKN250
     FM172000 VRB06KT P6SM VCTS BKN040CB
      TEMPO 1720/1723 3SM TSRA BKN040CB
     FM180100 13005KT P6SM BKN100=



000
FTUS44 KSJT 171700 RRA
TAFSJT
TAF
KSJT 171741Z 1718/1818 VRB05KT P6SM SCT035
     FM172200 12006KT P6SM VCSH BKN040
     FM180100 VRB05KT P6SM BKN100=



000
FTUS44 KSJT 171700 RRA
TAFJCT
TAF
KJCT 171741Z 1718/1818 10006KT P6SM VCSH SCT025 BKN040
      TEMPO 1722/1724 3SM TSRA BKN040CB
     FM180300 VRB03KT P6SM SCT050 BKN100
     FM181100 13007KT P6SM BKN025=



000
FTUS44 KSJT 171700 RRA
TAFABI
TAF
KABI 171741Z 1718/1818 19008KT P6SM SCT035 BKN250
     FM172100 VRB06KT P6SM VCSH BKN040
     FM180100 13005KT P6SM BKN100=



000
FTUS44 KSJT 171400 AAA
TAFJCT
TAF AMD
KJCT 171426Z 1714/1812 VRB04KT P6SM SCT025 BKN120
     FM171800 10007KT P6SM SCT050 BKN200
     FM180900 13007KT P6SM SCT025=



    US Dept of Commerce
    National Oceanic and Atmospheric Administration
    National Weather Service
    1325 East West Highway
    Silver Spring, MD 20910
    Page Author: NWS Internet Services Team
Disclaimer
Information Quality
Credits
Glossary
Privacy Policy
Freedom of Information Act (FOIA)
About Us
Career Opportunities